createdAt,value
2019-02-23T00:01:29.095Z,4.80
2019-02-23T00:03:56.852Z,4.60
2019-02-23T00:06:29.806Z,5.20
2019-02-23T00:08:55.984Z,4.77
2019-02-23T00:11:25.604Z,5.13
2019-02-23T00:13:53.332Z,5.47
2019-02-23T00:16:21.049Z,5.40
2019-02-23T00:18:50.602Z,5.90
2019-02-23T00:21:18.597Z,5.73
2019-02-23T00:23:46.287Z,6.07
2019-02-23T00:26:13.992Z,6.23
2019-02-23T00:28:43.757Z,6.30
2019-02-23T00:31:11.445Z,6.07
2019-02-23T00:33:39.100Z,5.77
2019-02-23T00:36:06.805Z,6.23
2019-02-23T00:38:34.442Z,6.37
2019-02-23T00:41:04.122Z,6.67
2019-02-23T00:43:31.742Z,6.80
2019-02-23T00:45:59.427Z,6.90
2019-02-23T00:48:27.105Z,7.67
2019-02-23T00:50:56.661Z,7.40
2019-02-23T00:53:24.338Z,7.53
2019-02-23T00:55:51.985Z,7.60
2019-02-23T00:58:19.857Z,8.03
2019-02-23T01:00:49.427Z,7.93
2019-02-23T01:03:17.149Z,8.60
2019-02-23T01:05:44.840Z,9.10
2019-02-23T01:08:12.545Z,8.63
2019-02-23T01:10:42.109Z,8.87
2019-02-23T01:13:09.873Z,9.60
2019-02-23T01:15:37.654Z,9.00
2019-02-23T01:18:05.325Z,10.07
2019-02-23T01:20:33.048Z,9.90
2019-02-23T01:23:02.682Z,9.10
2019-02-23T01:25:30.309Z,10.50
2019-02-23T01:27:57.966Z,10.17
2019-02-23T01:30:25.685Z,10.27
2019-02-23T01:32:55.218Z,10.67
2019-02-23T01:35:23.034Z,9.67
2019-02-23T01:37:50.898Z,10.20
2019-02-23T01:40:18.553Z,10.47
2019-02-23T01:42:48.110Z,10.20
2019-02-23T01:45:16.021Z,10.60
2019-02-23T01:47:43.707Z,10.87
2019-02-23T01:50:11.381Z,10.13
2019-02-23T01:52:40.946Z,10.50
2019-02-23T01:55:08.700Z,9.57
2019-02-23T01:57:36.383Z,10.87
2019-02-23T02:00:06.623Z,10.87
2019-02-23T02:02:34.636Z,10.53
2019-02-23T02:05:03.218Z,10.13
2019-02-23T02:07:31.955Z,10.47
2019-02-23T02:10:01.509Z,11.10
2019-02-23T02:12:31.193Z,11.17
2019-02-23T02:15:00.825Z,10.40
2019-02-23T02:17:28.485Z,11.17
2019-02-23T02:19:56.197Z,10.43
2019-02-23T02:22:23.982Z,10.23
2019-02-23T02:24:53.603Z,11.87
2019-02-23T02:27:21.304Z,10.50
2019-02-23T02:29:48.979Z,11.07
2019-02-23T02:32:16.754Z,11.03
2019-02-23T02:34:46.292Z,10.37
2019-02-23T02:37:14.088Z,10.80
2019-02-23T02:39:41.771Z,10.73
2019-02-23T02:42:09.447Z,11.17
2019-02-23T02:44:37.085Z,11.00
2019-02-23T02:47:06.677Z,11.57
2019-02-23T02:49:34.336Z,11.73
2019-02-23T02:52:02.293Z,10.90
2019-02-23T02:54:29.923Z,11.60
2019-02-23T02:56:59.523Z,11.67
2019-02-23T02:59:27.146Z,11.20
2019-02-23T03:01:54.814Z,11.63
2019-02-23T03:04:22.474Z,10.83
2019-02-23T03:06:52.055Z,11.37
2019-02-23T03:09:19.679Z,10.83
2019-02-23T03:11:47.365Z,10.60
2019-02-23T03:14:15.020Z,11.67
2019-02-23T03:16:44.605Z,10.80
2019-02-23T03:19:12.292Z,12.20
2019-02-23T03:21:39.969Z,11.33
2019-02-23T03:24:07.620Z,11.23
2019-02-23T03:26:36.432Z,11.47
2019-02-23T03:29:05.973Z,11.67
2019-02-23T03:31:33.609Z,12.10
2019-02-23T03:34:01.412Z,12.10
2019-02-23T03:36:29.052Z,11.77
2019-02-23T03:38:58.600Z,12.13
2019-02-23T03:41:26.306Z,11.90
2019-02-23T03:43:53.987Z,11.47
2019-02-23T03:46:21.640Z,11.93
2019-02-23T03:48:51.476Z,11.50
2019-02-23T03:51:19.108Z,12.10
2019-02-23T03:53:46.770Z,11.73
2019-02-23T03:56:14.677Z,12.20
2019-02-23T03:58:44.245Z,11.73
2019-02-23T04:01:12.028Z,12.30
2019-02-23T04:03:39.708Z,11.70
2019-02-23T04:06:07.630Z,12.50
2019-02-23T04:08:35.267Z,12.27
2019-02-23T04:11:04.908Z,12.17
2019-02-23T04:13:32.574Z,12.60
2019-02-23T04:16:00.227Z,12.47
2019-02-23T04:18:28.596Z,12.47
2019-02-23T04:21:01.833Z,13.10
2019-02-23T04:23:28.018Z,11.97
2019-02-23T04:25:55.775Z,13.20
2019-02-23T04:28:23.556Z,11.90
2019-02-23T04:30:53.178Z,13.50
2019-02-23T04:33:20.852Z,11.93
2019-02-23T04:35:48.500Z,12.67
2019-02-23T04:38:16.191Z,12.37
2019-02-23T04:40:45.791Z,13.13
2019-02-23T04:43:14.518Z,12.93
2019-02-23T04:45:42.188Z,12.37
2019-02-23T04:48:09.829Z,13.30
2019-02-23T04:50:37.561Z,12.27
2019-02-23T04:53:07.137Z,12.70
2019-02-23T04:55:34.770Z,12.67
2019-02-23T04:58:02.603Z,13.00
2019-02-23T05:00:30.309Z,13.43
2019-02-23T05:02:57.989Z,13.90
2019-02-23T05:05:29.134Z,14.13
2019-02-23T05:07:56.825Z,12.90
2019-02-23T05:10:24.470Z,13.53
2019-02-23T05:12:54.086Z,13.30
2019-02-23T05:15:21.726Z,12.87
2019-02-23T05:17:49.635Z,13.47
2019-02-23T05:20:17.324Z,14.30
2019-02-23T05:22:48.946Z,15.00
2019-02-23T05:25:16.624Z,13.40
2019-02-23T05:27:44.284Z,13.83
2019-02-23T05:30:12.100Z,13.37
2019-02-23T05:32:41.657Z,13.37
2019-02-23T05:35:11.233Z,14.33
2019-02-23T05:37:40.797Z,13.70
2019-02-23T05:40:09.009Z,13.87
2019-02-23T05:42:36.668Z,13.83
2019-02-23T05:45:06.357Z,13.47
2019-02-23T05:47:34.166Z,13.10
2019-02-23T05:50:01.842Z,13.70
2019-02-23T05:52:29.567Z,14.10
2019-02-23T05:54:59.189Z,13.80
2019-02-23T05:57:26.873Z,14.00
2019-02-23T05:59:54.516Z,14.27
2019-02-23T06:02:22.140Z,13.70
2019-02-23T06:04:51.700Z,13.23
2019-02-23T06:07:19.344Z,15.30
2019-02-23T06:09:47.006Z,14.90
2019-02-23T06:12:14.650Z,15.27
2019-02-23T06:14:44.263Z,13.80
2019-02-23T06:17:11.962Z,13.83
2019-02-23T06:19:40.821Z,13.67
2019-02-23T06:22:08.753Z,14.70
2019-02-23T06:24:36.410Z,13.90
2019-02-23T06:27:06.014Z,15.47
2019-02-23T06:29:34.701Z,14.17
2019-02-23T06:32:02.370Z,15.20
2019-02-23T06:34:31.096Z,14.80
2019-02-23T06:37:00.722Z,14.97
2019-02-23T06:39:28.374Z,14.40
2019-02-23T06:41:56.075Z,14.87
2019-02-23T06:44:23.777Z,14.97
2019-02-23T06:46:53.384Z,15.37
2019-02-23T06:49:21.051Z,15.80
2019-02-23T06:51:48.825Z,15.07
2019-02-23T06:54:16.533Z,16.43
2019-02-23T06:56:46.209Z,15.27
2019-02-23T06:59:14.089Z,15.60
2019-02-23T07:01:43.649Z,16.07
2019-02-23T07:04:11.262Z,15.87
2019-02-23T07:06:40.818Z,15.70
2019-02-23T07:09:08.446Z,16.60
2019-02-23T07:11:36.205Z,15.53
2019-02-23T07:14:03.847Z,15.57
2019-02-23T07:16:31.501Z,15.83
2019-02-23T07:19:01.221Z,15.53
2019-02-23T07:21:28.969Z,15.83
2019-02-23T07:23:59.631Z,16.33
2019-02-23T07:26:27.265Z,14.67
2019-02-23T07:28:56.853Z,16.10
2019-02-23T07:31:24.650Z,15.03
2019-02-23T07:33:52.341Z,14.97
2019-02-23T07:36:19.993Z,18.30
2019-02-23T07:38:49.594Z,15.33
2019-02-23T07:41:17.313Z,15.57
2019-02-23T07:43:45.081Z,15.17
2019-02-23T07:46:12.728Z,16.47
2019-02-23T07:48:42.342Z,15.67
2019-02-23T07:51:10.056Z,15.40
2019-02-23T07:53:37.721Z,15.97
2019-02-23T07:56:05.333Z,16.33
2019-02-23T07:58:33.144Z,16.03
2019-02-23T08:01:02.754Z,15.77
2019-02-23T08:03:33.368Z,14.70
2019-02-23T08:06:01.367Z,15.70
2019-02-23T08:08:29.018Z,16.57
2019-02-23T08:10:58.634Z,15.13
2019-02-23T08:13:26.382Z,15.57
2019-02-23T08:15:55.335Z,15.23
2019-02-23T08:18:23.008Z,15.37
2019-02-23T08:20:52.553Z,15.47
2019-02-23T08:23:20.360Z,15.03
2019-02-23T08:25:48.116Z,15.07
2019-02-23T08:28:16.781Z,15.17
2019-02-23T08:30:47.073Z,14.63
2019-02-23T08:33:15.656Z,15.43
2019-02-23T08:35:43.345Z,14.30
2019-02-23T08:38:11.001Z,15.03
2019-02-23T08:40:38.684Z,14.07
2019-02-23T08:43:08.390Z,14.27
2019-02-23T08:45:36.150Z,14.67
2019-02-23T08:48:03.818Z,14.83
2019-02-23T08:50:33.384Z,13.57
2019-02-23T08:53:03.005Z,14.50
2019-02-23T08:55:30.789Z,14.37
2019-02-23T08:57:59.309Z,14.10
2019-02-23T09:00:27.125Z,14.37
2019-02-23T09:02:56.706Z,15.33
2019-02-23T09:05:24.416Z,14.47
2019-02-23T09:07:52.073Z,15.13
2019-02-23T09:10:19.744Z,11.87
2019-02-23T09:12:49.481Z,11.83
2019-02-23T09:15:17.199Z,14.03
2019-02-23T09:17:46.846Z,14.33
2019-02-23T09:20:14.642Z,14.80
2019-02-23T09:22:44.277Z,14.53
2019-02-23T09:25:14.079Z,14.40
2019-02-23T09:27:41.859Z,14.97
2019-02-23T09:30:10.158Z,14.73
2019-02-23T09:32:37.802Z,14.83
2019-02-23T09:35:07.419Z,14.73
2019-02-23T09:37:35.173Z,14.67
2019-02-23T09:40:03.497Z,14.53
2019-02-23T09:42:31.114Z,15.13
2019-02-23T09:45:00.710Z,15.83
2019-02-23T09:47:28.398Z,15.80
2019-02-23T09:49:56.072Z,15.17
2019-02-23T09:52:23.724Z,16.40
2019-02-23T09:54:54.526Z,15.97
2019-02-23T09:57:22.237Z,15.87
2019-02-23T09:59:49.890Z,16.03
2019-02-23T10:02:17.630Z,16.00
2019-02-23T10:04:47.220Z,15.70
2019-02-23T10:07:16.120Z,16.17
2019-02-23T10:09:43.830Z,16.00
2019-02-23T10:12:11.486Z,16.43
2019-02-23T10:14:39.141Z,15.70
2019-02-23T10:17:09.383Z,15.87
2019-02-23T10:19:38.273Z,15.67
2019-02-23T10:22:06.076Z,14.73
2019-02-23T10:24:33.746Z,15.07
2019-02-23T10:27:03.313Z,15.20
2019-02-23T10:29:31.454Z,15.13
2019-02-23T10:31:59.089Z,14.73
2019-02-23T10:34:26.768Z,15.00
2019-02-23T10:36:56.368Z,16.53
2019-02-23T10:39:24.141Z,15.57
2019-02-23T10:41:51.845Z,15.63
2019-02-23T10:44:19.591Z,14.53
2019-02-23T10:46:49.138Z,14.47
2019-02-23T10:49:16.871Z,15.27
2019-02-23T10:51:44.555Z,14.60
2019-02-23T10:54:14.277Z,14.93
2019-02-23T10:56:43.891Z,15.07
2019-02-23T10:59:11.538Z,13.73
2019-02-23T11:01:39.732Z,14.50
2019-02-23T11:04:07.373Z,14.33
2019-02-23T11:06:35.093Z,14.90
2019-02-23T11:09:07.030Z,14.97
2019-02-23T11:11:36.713Z,13.83
2019-02-23T11:14:04.485Z,13.80
2019-02-23T11:16:32.117Z,14.53
2019-02-23T11:19:01.770Z,13.77
2019-02-23T11:21:29.479Z,13.87
2019-02-23T11:23:57.265Z,14.37
2019-02-23T11:26:25.022Z,13.80
2019-02-23T11:28:54.587Z,13.97
2019-02-23T11:31:22.416Z,13.63
2019-02-23T11:33:50.182Z,13.07
2019-02-23T11:36:17.926Z,13.00
2019-02-23T11:38:47.513Z,14.47
2019-02-23T11:41:17.287Z,13.43
2019-02-23T11:43:44.972Z,13.07
2019-02-23T11:46:12.807Z,13.57
2019-02-23T11:48:43.482Z,13.20
2019-02-23T11:51:13.305Z,12.87
2019-02-23T11:53:41.009Z,12.47
2019-02-23T11:56:08.810Z,12.40
2019-02-23T11:58:36.642Z,13.73
2019-02-23T12:01:06.277Z,11.80
2019-02-23T12:03:33.922Z,12.33
2019-02-23T12:06:02.033Z,11.77
2019-02-23T12:08:29.729Z,11.23
2019-02-23T12:10:59.318Z,11.23
2019-02-23T12:13:27.013Z,10.77
2019-02-23T12:15:54.743Z,10.97
2019-02-23T12:18:22.377Z,11.23
2019-02-23T12:20:51.974Z,10.57
2019-02-23T12:23:19.774Z,10.70
2019-02-23T12:25:47.559Z,10.70
2019-02-23T12:28:15.332Z,10.43
2019-02-23T12:30:45.193Z,10.30
2019-02-23T12:33:14.984Z,10.77
2019-02-23T12:35:43.779Z,10.50
2019-02-23T12:38:13.551Z,10.07
2019-02-23T12:40:43.137Z,9.87
2019-02-23T12:43:12.869Z,10.13
2019-02-23T12:45:43.737Z,9.43
2019-02-23T12:48:11.454Z,9.30
2019-02-23T12:50:39.114Z,8.80
2019-02-23T12:53:08.718Z,8.93
2019-02-23T12:55:38.357Z,9.50
2019-02-23T12:58:06.109Z,8.97
2019-02-23T13:00:33.817Z,8.40
2019-02-23T13:03:03.733Z,8.37
2019-02-23T13:05:31.397Z,8.13
2019-02-23T13:07:59.057Z,7.63
2019-02-23T13:10:27.033Z,7.53
2019-02-23T13:13:13.042Z,8.23
2019-02-23T13:16:17.709Z,7.97
2019-02-23T13:19:32.506Z,6.93
2019-02-23T13:22:29.937Z,7.90
2019-02-23T13:25:21.341Z,7.00
2019-02-23T13:28:31.560Z,6.97
2019-02-23T13:31:34.097Z,7.10
2019-02-23T13:34:52.378Z,6.97
2019-02-23T13:37:48.776Z,7.03
2019-02-23T13:41:00.769Z,6.70
2019-02-23T13:44:00.721Z,6.43
2019-02-23T13:47:00.344Z,6.63
2019-02-23T13:49:56.887Z,6.33
2019-02-23T13:53:12.404Z,6.73
2019-02-23T13:56:11.101Z,6.27
2019-02-23T13:59:12.833Z,6.00
2019-02-23T14:02:04.115Z,6.50
2019-02-23T14:05:12.825Z,6.60
2019-02-23T14:08:17.514Z,6.43
2019-02-23T14:11:08.465Z,6.00
2019-02-23T14:14:08.889Z,6.33
2019-02-23T14:17:12.998Z,5.70
2019-02-23T14:20:28.313Z,5.93
2019-02-23T14:23:08.176Z,6.10
2019-02-23T14:26:23.849Z,5.90
2019-02-23T14:29:24.957Z,5.90
2019-02-23T14:32:16.710Z,5.57
2019-02-23T14:35:27.157Z,5.53
2019-02-23T14:38:31.972Z,5.80
2019-02-23T14:41:11.925Z,5.33
2019-02-23T14:44:16.733Z,5.37
2019-02-23T14:47:04.874Z,5.80
2019-02-23T14:50:19.449Z,5.60
2019-02-23T14:53:26.614Z,5.70
2019-02-23T14:56:45.074Z,5.17
2019-02-23T14:59:40.641Z,5.50
2019-02-23T15:03:08.223Z,5.20
2019-02-23T15:06:08.559Z,5.27
2019-02-23T15:09:17.272Z,5.13
2019-02-23T15:12:13.375Z,5.20
2019-02-23T15:15:23.469Z,4.93
2019-02-23T15:18:12.665Z,5.20
2019-02-23T15:21:00.129Z,5.23
2019-02-23T15:24:15.626Z,4.73
2019-02-23T15:27:43.053Z,5.00
2019-02-23T15:30:19.017Z,4.50
2019-02-23T15:33:33.917Z,4.63
2019-02-23T15:36:26.160Z,4.50
2019-02-23T15:39:49.292Z,3.80
2019-02-23T15:42:54.344Z,4.90
2019-02-23T15:46:00.684Z,4.37
2019-02-23T15:49:06.958Z,4.00
2019-02-23T15:51:34.781Z,4.10
2019-02-23T15:54:02.645Z,4.47
2019-02-23T15:56:30.368Z,4.00
2019-02-23T15:58:58.099Z,4.13
2019-02-23T16:01:25.833Z,4.23
2019-02-23T16:03:53.509Z,4.40
2019-02-23T16:06:23.124Z,4.40
2019-02-23T16:08:52.657Z,4.20
2019-02-23T16:11:20.442Z,4.87
2019-02-23T16:13:51.105Z,4.50
2019-02-23T16:16:20.842Z,4.30
2019-02-23T16:18:50.484Z,3.73
2019-02-23T16:21:19.342Z,4.10
2019-02-23T16:23:47.028Z,4.07
2019-02-23T16:26:14.810Z,4.47
2019-02-23T16:28:42.525Z,4.10
2019-02-23T16:31:12.171Z,4.07
2019-02-23T16:33:39.911Z,4.10
2019-02-23T16:36:07.636Z,4.03
2019-02-23T16:38:35.316Z,4.00
2019-02-23T16:41:05.125Z,4.10
2019-02-23T16:43:32.910Z,3.90
2019-02-23T16:46:03.137Z,3.33
2019-02-23T16:48:30.963Z,4.37
2019-02-23T16:51:04.207Z,3.90
2019-02-23T16:53:31.927Z,4.00
2019-02-23T16:55:59.677Z,3.97
2019-02-23T16:58:27.373Z,4.07
2019-02-23T17:00:57.121Z,4.37
2019-02-23T17:03:26.019Z,4.10
2019-02-23T17:05:53.708Z,4.73
2019-02-23T17:08:21.517Z,3.90
2019-02-23T17:10:53.781Z,3.73
2019-02-23T17:13:21.496Z,4.10
2019-02-23T17:15:49.196Z,4.07
2019-02-23T17:18:18.017Z,4.23
2019-02-23T17:20:47.799Z,3.87
2019-02-23T17:23:17.476Z,3.87
2019-02-23T17:25:45.162Z,4.00
2019-02-23T17:28:12.868Z,4.13
2019-02-23T17:30:42.509Z,4.23
2019-02-23T17:33:12.166Z,4.33
2019-02-23T17:35:39.824Z,3.83
2019-02-23T17:38:16.262Z,3.97
2019-02-23T17:40:40.944Z,4.77
2019-02-23T17:43:10.598Z,4.40
2019-02-23T17:45:38.365Z,4.00
2019-02-23T17:48:08.054Z,3.93
2019-02-23T17:50:35.897Z,4.03
2019-02-23T17:53:05.476Z,3.57
2019-02-23T17:55:33.161Z,3.70
2019-02-23T17:58:00.861Z,3.90
2019-02-23T18:00:28.512Z,3.70
2019-02-23T18:02:58.420Z,3.53
2019-02-23T18:05:26.280Z,4.20
2019-02-23T18:07:53.938Z,3.70
2019-02-23T18:10:21.761Z,3.43
2019-02-23T18:12:51.358Z,7.00
2019-02-23T18:15:19.500Z,7.10
2019-02-23T18:17:47.367Z,5.70
2019-02-23T18:20:16.989Z,3.77
2019-02-23T18:22:44.795Z,3.50
2019-02-23T18:25:15.486Z,3.57
2019-02-23T18:27:43.225Z,4.00
2019-02-23T18:30:14.048Z,4.07
2019-02-23T18:32:42.032Z,8.83
2019-02-23T18:35:11.763Z,6.10
2019-02-23T18:37:41.410Z,4.70
2019-02-23T18:40:09.347Z,5.27
2019-02-23T18:42:37.485Z,5.23
2019-02-23T18:45:07.245Z,4.20
2019-02-23T18:47:35.161Z,5.00
2019-02-23T18:50:03.165Z,4.47
2019-02-23T18:52:31.099Z,4.00
2019-02-23T18:55:03.628Z,3.70
2019-02-23T18:57:34.916Z,4.40
2019-02-23T19:00:03.594Z,4.27
2019-02-23T19:02:31.841Z,5.10
2019-02-23T19:05:01.560Z,4.13
2019-02-23T19:07:29.545Z,4.43
2019-02-23T19:09:57.329Z,4.47
2019-02-23T19:12:25.464Z,5.97
2019-02-23T19:14:56.372Z,5.10
2019-02-23T19:17:24.087Z,9.47
2019-02-23T19:19:51.766Z,4.30
2019-02-23T19:22:19.599Z,4.87
2019-02-23T19:24:50.293Z,5.50
2019-02-23T19:27:18.993Z,4.23
2019-02-23T19:29:46.787Z,4.50
2019-02-23T19:32:14.672Z,4.97
2019-02-23T19:34:42.434Z,5.10
2019-02-23T19:37:10.269Z,4.23
2019-02-23T19:39:38.106Z,3.93
2019-02-23T19:42:05.985Z,4.03
2019-02-23T19:44:33.760Z,4.10
2019-02-23T19:47:13.281Z,3.60
2019-02-23T19:49:42.296Z,3.80
2019-02-23T19:52:09.978Z,3.97
2019-02-23T19:54:37.750Z,3.77
2019-02-23T19:57:07.466Z,3.43
2019-02-23T19:59:35.321Z,3.50
2019-02-23T20:02:03.189Z,3.47
2019-02-23T20:04:31.182Z,3.60
2019-02-23T20:07:00.873Z,3.40
2019-02-23T20:09:28.648Z,3.80
2019-02-23T20:11:56.442Z,3.53
2019-02-23T20:14:24.166Z,2.97
2019-02-23T20:16:53.745Z,3.37
2019-02-23T20:19:21.812Z,3.40
2019-02-23T20:21:49.547Z,3.00
2019-02-23T20:24:17.288Z,3.20
2019-02-23T20:26:45.065Z,3.40
2019-02-23T20:29:13.009Z,3.00
2019-02-23T20:31:41.851Z,3.20
2019-02-23T20:34:09.577Z,3.30
2019-02-23T20:36:37.340Z,3.90
2019-02-23T20:39:07.228Z,3.80
2019-02-23T20:41:36.918Z,3.67
2019-02-23T20:44:04.669Z,3.77
2019-02-23T20:46:32.363Z,3.63
2019-02-23T20:49:00.191Z,3.20
2019-02-23T20:51:28.048Z,3.30
2019-02-23T20:53:55.794Z,3.23
2019-02-23T20:56:23.701Z,3.27
2019-02-23T20:58:53.282Z,3.40
2019-02-23T21:01:22.860Z,3.63
2019-02-23T21:03:50.918Z,4.87
2019-02-23T21:06:18.636Z,3.40
2019-02-23T21:08:48.420Z,4.00
2019-02-23T21:11:18.119Z,4.20
2019-02-23T21:13:45.813Z,3.40
2019-02-23T21:16:15.252Z,3.67
2019-02-23T21:18:43.030Z,3.67
2019-02-23T21:21:12.596Z,3.43
2019-02-23T21:23:40.326Z,3.27
2019-02-23T21:26:08.011Z,4.63
2019-02-23T21:28:37.597Z,5.90
2019-02-23T21:31:07.144Z,7.87
2019-02-23T21:33:34.985Z,6.47
2019-02-23T21:36:02.652Z,8.60
2019-02-23T21:38:30.409Z,4.50
2019-02-23T21:40:59.970Z,3.90
2019-02-23T21:43:29.243Z,4.70
2019-02-23T21:45:56.938Z,3.90
2019-02-23T21:48:24.664Z,3.23
2019-02-23T21:50:52.324Z,3.37
2019-02-23T21:53:22.905Z,3.57
2019-02-23T21:55:50.669Z,3.57
2019-02-23T21:58:18.538Z,3.90
2019-02-23T22:00:46.417Z,3.57
2019-02-23T22:03:16.109Z,3.47
2019-02-23T22:05:43.913Z,3.70
2019-02-23T22:08:11.569Z,3.50
2019-02-23T22:10:39.464Z,3.20
2019-02-23T22:13:09.213Z,3.73
2019-02-23T22:15:38.800Z,3.93
2019-02-23T22:18:08.431Z,3.80
2019-02-23T22:20:38.031Z,3.80
2019-02-23T22:23:07.836Z,3.63
2019-02-23T22:25:37.443Z,4.03
2019-02-23T22:28:07.045Z,3.87
2019-02-23T22:30:36.640Z,4.00
2019-02-23T22:33:06.171Z,3.80
2019-02-23T22:35:35.810Z,3.93
2019-02-23T22:38:05.393Z,4.10
2019-02-23T22:40:35.008Z,4.10
2019-02-23T22:43:04.547Z,4.37
2019-02-23T22:45:36.670Z,3.70
2019-02-23T22:48:06.309Z,3.80
2019-02-23T22:50:35.928Z,3.77
2019-02-23T22:53:05.609Z,3.87
2019-02-23T22:55:43.805Z,3.80
2019-02-23T22:58:13.338Z,3.60
2019-02-23T23:01:02.090Z,3.63
2019-02-23T23:03:33.579Z,4.17
2019-02-23T23:06:01.350Z,3.40
2019-02-23T23:08:29.096Z,4.03
2019-02-23T23:10:56.791Z,3.30
2019-02-23T23:13:24.581Z,3.53
2019-02-23T23:15:54.234Z,3.00
2019-02-23T23:18:22.125Z,3.90
2019-02-23T23:20:49.823Z,3.53
2019-02-23T23:23:17.529Z,3.37
2019-02-23T23:25:47.249Z,3.63
2019-02-23T23:28:15.006Z,3.20
2019-02-23T23:30:42.733Z,3.13
2019-02-23T23:33:10.454Z,3.13
2019-02-23T23:35:40.088Z,3.40
2019-02-23T23:38:07.845Z,3.57
2019-02-23T23:40:35.521Z,3.53
2019-02-23T23:43:03.155Z,3.20
2019-02-23T23:45:32.846Z,3.03
2019-02-23T23:48:02.434Z,2.97
2019-02-23T23:50:30.185Z,2.67
2019-02-23T23:52:57.918Z,2.90
2019-02-23T23:55:26.051Z,3.30
2019-02-23T23:57:58.406Z,3.40
